createdAt,value
2023-02-13T00:03:49.008Z,7.80
2023-02-13T00:08:53.920Z,7.07
2023-02-13T00:13:57.214Z,9.40
2023-02-13T00:19:00.490Z,8.17
2023-02-13T00:24:06.013Z,9.70
2023-02-13T00:29:09.398Z,8.83
2023-02-13T00:34:12.745Z,7.37
2023-02-13T00:39:17.576Z,7.67
2023-02-13T00:44:20.874Z,7.40
2023-02-13T00:49:24.129Z,6.80
2023-02-13T00:54:28.876Z,8.90
2023-02-13T00:59:32.296Z,6.53
2023-02-13T01:04:35.644Z,6.70
2023-02-13T01:09:40.380Z,6.83
2023-02-13T01:14:43.705Z,6.07
2023-02-13T01:19:47.024Z,6.70
2023-02-13T01:24:51.907Z,7.27
2023-02-13T01:29:55.239Z,6.57
2023-02-13T01:34:58.592Z,6.93
2023-02-13T01:40:03.511Z,6.07
2023-02-13T01:45:19.750Z,7.00
2023-02-13T01:50:30.476Z,8.00
2023-02-13T01:55:37.912Z,7.03
2023-02-13T02:00:41.774Z,7.97
2023-02-13T02:05:45.168Z,7.43
2023-02-13T02:10:49.989Z,8.30
2023-02-13T02:15:55.078Z,8.10
2023-02-13T02:21:42.968Z,7.77
2023-02-13T02:27:20.440Z,7.73
2023-02-13T02:32:47.638Z,7.17
2023-02-13T02:38:09.810Z,7.50
2023-02-13T02:43:27.209Z,8.87
2023-02-13T02:48:52.869Z,6.53
2023-02-13T02:54:25.864Z,6.30
2023-02-13T02:59:48.550Z,7.97
2023-02-13T03:05:13.677Z,6.73
2023-02-13T03:10:41.173Z,6.97
2023-02-13T03:16:00.833Z,7.67
2023-02-13T03:21:31.589Z,9.17
2023-02-13T03:26:51.371Z,6.73
2023-02-13T03:32:02.210Z,7.60
2023-02-13T03:37:29.789Z,6.87
2023-02-13T03:42:43.415Z,6.53
2023-02-13T03:47:48.985Z,6.40
2023-02-13T03:52:57.058Z,7.57
2023-02-13T03:58:21.282Z,10.00
2023-02-13T04:03:28.178Z,6.20
2023-02-13T04:08:33.059Z,7.20
2023-02-13T04:13:40.221Z,7.40
2023-02-13T04:18:44.726Z,6.47
2023-02-13T04:23:49.461Z,7.93
2023-02-13T04:28:52.740Z,7.57
2023-02-13T04:33:56.047Z,6.17
2023-02-13T04:39:00.791Z,6.37
2023-02-13T04:44:04.266Z,7.17
2023-02-13T04:49:07.649Z,7.23
2023-02-13T04:54:12.650Z,6.03
2023-02-13T04:59:15.994Z,6.20
2023-02-13T05:04:19.342Z,7.27
2023-02-13T05:09:24.081Z,6.30
2023-02-13T05:14:27.512Z,6.37
2023-02-13T05:19:30.828Z,7.40
2023-02-13T05:24:35.560Z,6.93
2023-02-13T05:29:38.879Z,6.83
2023-02-13T05:34:42.127Z,7.70
2023-02-13T05:39:46.830Z,7.17
2023-02-13T05:44:50.121Z,6.10
2023-02-13T05:49:53.413Z,6.13
2023-02-13T05:54:58.116Z,6.77
2023-02-13T06:00:01.534Z,6.33
2023-02-13T06:05:04.912Z,6.47
2023-02-13T06:10:10.166Z,6.83
2023-02-13T06:15:13.466Z,5.83
2023-02-13T06:20:16.887Z,6.50
2023-02-13T06:25:21.805Z,7.17
2023-02-13T06:30:25.422Z,6.17
2023-02-13T06:35:28.908Z,6.83
2023-02-13T06:40:33.708Z,6.60
2023-02-13T06:45:38.272Z,8.93
2023-02-13T06:50:41.634Z,7.77
2023-02-13T06:55:46.338Z,8.10
2023-02-13T07:00:49.651Z,8.33
2023-02-13T07:05:53.054Z,8.13
2023-02-13T07:10:57.968Z,9.37
2023-02-13T07:16:02.981Z,9.13
2023-02-13T07:21:06.553Z,10.77
2023-02-13T07:26:12.245Z,8.33
2023-02-13T07:31:15.708Z,7.57
2023-02-13T07:36:19.038Z,7.20
2023-02-13T07:41:26.830Z,7.50
2023-02-13T07:46:30.307Z,7.97
2023-02-13T07:51:33.617Z,7.83
2023-02-13T07:56:38.316Z,7.07
2023-02-13T08:01:41.667Z,6.60
2023-02-13T08:06:45.145Z,7.37
2023-02-13T08:11:55.861Z,7.27
2023-02-13T08:17:01.041Z,9.77
2023-02-13T08:22:04.326Z,10.23
2023-02-13T08:27:11.666Z,8.07
2023-02-13T08:32:15.100Z,8.27
2023-02-13T08:37:18.746Z,10.20
2023-02-13T08:42:23.445Z,9.00
2023-02-13T08:47:26.775Z,7.50
2023-02-13T08:52:30.321Z,7.80
2023-02-13T08:57:35.122Z,6.77
2023-02-13T09:02:38.533Z,7.03
2023-02-13T09:07:41.910Z,5.57
2023-02-13T09:12:52.871Z,4.20
2023-02-13T09:17:56.131Z,4.43
2023-02-13T09:22:59.391Z,3.43
2023-02-13T09:28:04.074Z,2.53
2023-02-13T09:33:12.516Z,3.00
2023-02-13T09:38:15.974Z,3.83
2023-02-13T09:43:32.684Z,2.93
2023-02-13T09:48:38.592Z,5.07
2023-02-13T09:53:43.645Z,3.10
2023-02-13T09:58:50.099Z,3.20
2023-02-13T10:04:18.881Z,3.23
2023-02-13T10:09:32.054Z,5.20
2023-02-13T10:14:46.634Z,2.80
2023-02-13T10:19:57.086Z,2.83
2023-02-13T10:25:05.739Z,4.73
2023-02-13T10:30:21.475Z,2.63
2023-02-13T10:35:30.864Z,3.77
2023-02-13T10:40:41.728Z,2.40
2023-02-13T10:46:01.223Z,2.03
2023-02-13T10:52:23.209Z,2.67
2023-02-13T10:57:36.552Z,2.47
2023-02-13T11:02:41.513Z,4.60
2023-02-13T11:07:46.943Z,2.57
2023-02-13T11:12:51.025Z,1.97
2023-02-13T11:17:58.000Z,1.90
2023-02-13T11:23:29.465Z,1.57
2023-02-13T11:28:37.272Z,1.97
2023-02-13T11:33:42.853Z,1.60
2023-02-13T11:38:46.196Z,2.63
2023-02-13T11:43:51.967Z,2.17
2023-02-13T11:49:02.488Z,2.10
2023-02-13T11:54:06.496Z,2.20
2023-02-13T11:59:15.502Z,1.70
2023-02-13T12:04:22.989Z,1.70
2023-02-13T12:09:26.254Z,2.00
2023-02-13T12:14:35.235Z,1.50
2023-02-13T12:19:43.803Z,1.60
2023-02-13T12:25:04.899Z,1.70
2023-02-13T12:30:29.074Z,2.40
2023-02-13T12:35:44.973Z,1.33
2023-02-13T12:41:16.524Z,3.07
2023-02-13T12:46:26.557Z,1.93
2023-02-13T12:51:40.845Z,1.60
2023-02-13T12:57:04.158Z,1.53
2023-02-13T13:02:31.585Z,1.83
2023-02-13T13:07:50.065Z,1.77
2023-02-13T13:12:58.974Z,3.90
2023-02-13T13:18:16.747Z,1.53
2023-02-13T13:23:24.563Z,1.90
2023-02-13T13:28:30.879Z,2.40
2023-02-13T13:33:35.853Z,1.73
2023-02-13T13:38:51.905Z,3.47
2023-02-13T13:44:22.420Z,1.40
2023-02-13T13:49:37.200Z,1.70
2023-02-13T13:54:41.841Z,2.27
2023-02-13T14:00:19.821Z,2.10
2023-02-13T14:05:31.110Z,1.80
2023-02-13T14:11:03.976Z,1.73
2023-02-13T14:16:11.706Z,2.97
2023-02-13T14:21:24.861Z,2.70
2023-02-13T14:26:40.615Z,2.10
2023-02-13T14:31:52.913Z,3.03
2023-02-13T14:37:08.531Z,2.47
2023-02-13T14:42:27.951Z,1.60
2023-02-13T14:47:33.577Z,2.03
2023-02-13T14:52:43.172Z,2.63
2023-02-13T14:57:53.455Z,2.33
2023-02-13T15:03:03.639Z,2.23
2023-02-13T15:08:15.001Z,2.00
2023-02-13T15:13:22.315Z,3.20
2023-02-13T15:18:29.634Z,5.37
2023-02-13T15:23:34.940Z,2.27
2023-02-13T15:28:39.666Z,2.73
2023-02-13T15:33:47.147Z,2.80
2023-02-13T15:38:50.517Z,2.90
2023-02-13T15:43:59.181Z,1.90
2023-02-13T15:49:07.680Z,2.90
2023-02-13T15:54:24.962Z,7.37
2023-02-13T15:59:35.597Z,3.13
2023-02-13T16:04:39.615Z,2.63
2023-02-13T16:09:43.129Z,3.17
2023-02-13T16:14:52.572Z,4.13
2023-02-13T16:20:02.632Z,2.50
2023-02-13T16:25:24.372Z,4.10
2023-02-13T16:30:34.130Z,4.80
2023-02-13T16:35:40.439Z,5.17
2023-02-13T16:40:46.083Z,2.00
2023-02-13T16:45:51.993Z,5.30
2023-02-13T16:50:58.100Z,3.77
2023-02-13T16:56:04.504Z,5.40
2023-02-13T17:01:18.350Z,5.70
2023-02-13T17:06:25.405Z,5.10
2023-02-13T17:11:30.168Z,4.83
2023-02-13T17:16:35.603Z,5.27
2023-02-13T17:21:39.971Z,4.70
2023-02-13T17:26:45.824Z,9.13
2023-02-13T17:31:58.964Z,7.63
2023-02-13T17:37:03.624Z,7.73
2023-02-13T17:42:07.877Z,6.43
2023-02-13T17:47:17.464Z,7.67
2023-02-13T17:52:23.955Z,4.87
2023-02-13T17:57:28.602Z,5.40
2023-02-13T18:02:35.342Z,4.40
2023-02-13T18:07:43.171Z,4.73
2023-02-13T18:12:50.410Z,4.93
2023-02-13T18:17:56.979Z,5.53
2023-02-13T18:23:02.309Z,5.60
2023-02-13T18:28:06.705Z,7.07
2023-02-13T18:33:13.410Z,4.47
2023-02-13T18:38:17.777Z,4.47
2023-02-13T18:43:22.241Z,4.77
2023-02-13T18:48:28.395Z,4.47
2023-02-13T18:53:33.790Z,3.33
2023-02-13T18:58:38.085Z,3.83
2023-02-13T19:03:49.379Z,4.03
2023-02-13T19:08:57.757Z,3.13
2023-02-13T19:14:03.929Z,2.93
2023-02-13T19:19:11.358Z,3.00
2023-02-13T19:24:16.453Z,6.00
2023-02-13T19:29:21.189Z,6.00
2023-02-13T19:34:27.913Z,4.57
2023-02-13T19:39:33.077Z,4.43
2023-02-13T19:44:38.950Z,5.40
2023-02-13T19:49:48.271Z,2.50
2023-02-13T19:54:55.533Z,2.63
2023-02-13T20:00:05.740Z,2.27
2023-02-13T20:05:20.253Z,3.83
2023-02-13T20:10:26.378Z,4.20
2023-02-13T20:15:33.485Z,3.47
2023-02-13T20:20:45.026Z,5.20
2023-02-13T20:25:49.588Z,4.17
2023-02-13T20:30:54.997Z,5.17
2023-02-13T20:36:00.401Z,5.37
2023-02-13T20:41:10.562Z,4.10
2023-02-13T20:46:16.881Z,4.03
2023-02-13T20:51:24.796Z,4.93
2023-02-13T20:56:30.167Z,7.27
2023-02-13T21:01:37.900Z,4.20
2023-02-13T21:06:44.505Z,5.87
2023-02-13T21:11:50.543Z,4.23
2023-02-13T21:17:00.736Z,4.33
2023-02-13T21:22:12.981Z,4.13
2023-02-13T21:27:18.038Z,3.27
2023-02-13T21:32:21.918Z,3.37
2023-02-13T21:37:27.579Z,13.67
2023-02-13T21:42:33.149Z,15.10
2023-02-13T21:47:38.145Z,13.07
2023-02-13T21:52:43.429Z,7.50
2023-02-13T21:57:47.008Z,8.10
2023-02-13T22:02:50.326Z,6.27
2023-02-13T22:08:12.787Z,5.93
2023-02-13T22:13:16.061Z,4.73
2023-02-13T22:18:19.304Z,3.80
2023-02-13T22:23:23.958Z,3.80
2023-02-13T22:28:27.664Z,3.90
2023-02-13T22:33:30.916Z,5.30
2023-02-13T22:38:36.295Z,5.30
2023-02-13T22:43:40.241Z,6.43
2023-02-13T22:48:46.170Z,4.50
2023-02-13T22:53:53.587Z,6.33
2023-02-13T22:58:56.962Z,5.80
2023-02-13T23:04:00.787Z,7.33
2023-02-13T23:09:05.651Z,5.77
2023-02-13T23:14:10.195Z,6.73
2023-02-13T23:19:13.525Z,6.10
2023-02-13T23:24:18.509Z,6.30
2023-02-13T23:29:21.907Z,6.13
2023-02-13T23:34:25.264Z,5.87
2023-02-13T23:39:29.947Z,7.10
2023-02-13T23:44:33.264Z,6.23
2023-02-13T23:49:36.627Z,7.40
2023-02-13T23:54:41.568Z,7.57
2023-02-13T23:59:45.036Z,4.37
